createdAt,value
2023-04-15T00:01:39.412Z,3.22
2023-04-15T00:04:06.834Z,2.13
2023-04-15T00:06:34.194Z,3.88
2023-04-15T00:09:01.804Z,2.28
2023-04-15T00:11:29.300Z,2.53
2023-04-15T00:13:56.683Z,2.17
2023-04-15T00:16:24.078Z,2.55
2023-04-15T00:18:51.977Z,1.77
2023-04-15T00:21:19.311Z,2.65
2023-04-15T00:23:49.938Z,2.20
2023-04-15T00:26:17.257Z,3.75
2023-04-15T00:28:44.932Z,3.40
2023-04-15T00:31:12.321Z,7.28
2023-04-15T00:33:40.291Z,5.78
2023-04-15T00:36:08.831Z,6.32
2023-04-15T00:38:36.219Z,5.00
2023-04-15T00:41:04.185Z,5.32
2023-04-15T00:43:31.518Z,7.95
2023-04-15T00:45:59.863Z,7.35
2023-04-15T00:48:27.464Z,6.82
2023-04-15T00:50:54.796Z,6.30
2023-04-15T00:53:22.142Z,6.15
2023-04-15T00:55:49.583Z,5.57
2023-04-15T00:58:17.461Z,6.97
2023-04-15T01:00:45.008Z,8.93
2023-04-15T01:03:12.462Z,7.53
2023-04-15T01:05:39.912Z,6.63
2023-04-15T01:08:07.278Z,10.10
2023-04-15T01:10:34.754Z,7.07
2023-04-15T01:13:02.296Z,6.82
2023-04-15T01:15:29.714Z,6.03
2023-04-15T01:17:58.342Z,7.22
2023-04-15T01:20:26.204Z,5.53
2023-04-15T01:22:54.162Z,5.70
2023-04-15T01:25:28.189Z,8.07
2023-04-15T01:27:55.544Z,11.98
2023-04-15T01:30:22.870Z,12.20
2023-04-15T01:32:50.210Z,14.32
2023-04-15T01:35:17.740Z,15.75
2023-04-15T01:37:45.158Z,15.13
2023-04-15T01:40:12.539Z,15.02
2023-04-15T01:42:39.864Z,16.08
2023-04-15T01:45:07.462Z,14.20
2023-04-15T01:47:34.788Z,13.75
2023-04-15T01:50:02.403Z,12.63
2023-04-15T01:52:29.703Z,13.65
2023-04-15T01:54:57.394Z,14.00
2023-04-15T01:57:24.725Z,14.05
2023-04-15T01:59:52.228Z,15.70
2023-04-15T02:02:19.650Z,17.30
2023-04-15T02:04:47.108Z,13.55
2023-04-15T02:07:14.496Z,11.60
2023-04-15T02:09:46.311Z,12.45
2023-04-15T02:12:13.918Z,16.73
2023-04-15T02:14:41.681Z,15.15
2023-04-15T02:17:09.036Z,13.05
2023-04-15T02:19:36.674Z,11.00
2023-04-15T02:22:04.108Z,10.40
2023-04-15T02:24:31.806Z,16.27
2023-04-15T02:26:59.184Z,12.27
2023-04-15T02:29:26.496Z,14.95
2023-04-15T02:31:54.097Z,12.93
2023-04-15T02:34:21.785Z,13.07
2023-04-15T02:36:49.939Z,15.65
2023-04-15T02:39:18.832Z,15.18
2023-04-15T02:41:51.933Z,14.75
2023-04-15T02:44:20.707Z,14.05
2023-04-15T02:46:51.078Z,14.65
2023-04-15T02:49:18.406Z,12.88
2023-04-15T02:51:49.664Z,14.48
2023-04-15T02:54:18.072Z,13.48
2023-04-15T02:56:45.617Z,11.23
2023-04-15T02:59:13.543Z,10.55
2023-04-15T03:01:41.024Z,12.10
2023-04-15T03:04:09.490Z,12.07
2023-04-15T03:06:37.060Z,10.27
2023-04-15T03:09:04.462Z,12.25
2023-04-15T03:11:31.909Z,10.80
2023-04-15T03:13:59.241Z,8.50
2023-04-15T03:16:26.633Z,9.75
2023-04-15T03:18:53.944Z,8.57
2023-04-15T03:21:21.320Z,8.85
2023-04-15T03:23:49.584Z,11.13
2023-04-15T03:26:30.283Z,9.75
2023-04-15T03:28:57.626Z,10.73
2023-04-15T03:31:25.250Z,11.73
2023-04-15T03:33:52.554Z,10.60
2023-04-15T03:36:19.930Z,12.73
2023-04-15T03:38:47.310Z,10.73
2023-04-15T03:41:14.712Z,10.80
2023-04-15T03:43:42.027Z,11.77
2023-04-15T03:46:09.379Z,10.25
2023-04-15T03:48:36.757Z,10.18
2023-04-15T03:51:04.227Z,10.95
2023-04-15T03:53:31.575Z,11.45
2023-04-15T03:55:58.905Z,10.90
2023-04-15T03:58:26.229Z,8.88
2023-04-15T04:00:53.618Z,9.77
2023-04-15T04:03:21.222Z,11.00
2023-04-15T04:05:48.829Z,11.15
2023-04-15T04:08:16.628Z,12.95
2023-04-15T04:10:44.135Z,10.88
2023-04-15T04:13:11.668Z,12.63
2023-04-15T04:15:39.071Z,11.23
2023-04-15T04:18:06.778Z,10.65
2023-04-15T04:20:34.532Z,13.52
2023-04-15T04:23:01.859Z,12.95
2023-04-15T04:25:29.253Z,12.60
2023-04-15T04:27:56.592Z,13.32
2023-04-15T04:30:23.969Z,15.15
2023-04-15T04:32:51.874Z,15.32
2023-04-15T04:35:19.261Z,16.83
2023-04-15T04:37:46.581Z,13.23
2023-04-15T04:40:14.201Z,15.05
2023-04-15T04:42:41.712Z,14.40
2023-04-15T04:45:09.281Z,13.90
2023-04-15T04:47:37.001Z,14.63
2023-04-15T04:50:04.494Z,13.30
2023-04-15T04:52:31.819Z,16.38
2023-04-15T04:54:59.149Z,14.13
2023-04-15T04:57:26.706Z,15.95
2023-04-15T04:59:54.034Z,13.52
2023-04-15T05:02:21.755Z,13.23
2023-04-15T05:04:50.529Z,12.55
2023-04-15T05:07:17.825Z,13.35
2023-04-15T05:09:45.150Z,13.07
2023-04-15T05:12:15.202Z,14.27
2023-04-15T05:14:43.229Z,13.55
2023-04-15T05:17:12.808Z,13.88
2023-04-15T05:19:40.149Z,12.15
2023-04-15T05:22:07.546Z,11.48
2023-04-15T05:24:34.917Z,10.95
2023-04-15T05:27:02.948Z,9.65
2023-04-15T05:29:30.360Z,12.52
2023-04-15T05:31:57.743Z,12.73
2023-04-15T05:34:25.037Z,13.93
2023-04-15T05:36:52.819Z,15.00
2023-04-15T05:39:20.134Z,12.32
2023-04-15T05:41:47.477Z,14.52
2023-04-15T05:44:14.768Z,11.43
2023-04-15T05:46:42.270Z,15.27
2023-04-15T05:49:09.641Z,15.70
2023-04-15T05:51:37.241Z,14.25
2023-04-15T05:54:04.725Z,12.13
2023-04-15T05:56:32.085Z,12.13
2023-04-15T05:58:59.655Z,13.10
2023-04-15T06:01:27.237Z,12.75
2023-04-15T06:03:54.674Z,13.80
2023-04-15T06:06:22.333Z,14.35
2023-04-15T06:08:49.649Z,15.05
2023-04-15T06:11:16.994Z,13.35
2023-04-15T06:13:44.362Z,12.63
2023-04-15T06:16:12.114Z,9.95
2023-04-15T06:18:39.405Z,12.80
2023-04-15T06:21:07.254Z,13.00
2023-04-15T06:23:37.751Z,12.07
2023-04-15T06:26:05.100Z,17.05
2023-04-15T06:28:32.483Z,12.00
2023-04-15T06:30:59.809Z,13.50
2023-04-15T06:33:27.240Z,11.98
2023-04-15T06:35:54.618Z,12.45
2023-04-15T06:38:21.970Z,12.52
2023-04-15T06:40:49.337Z,11.93
2023-04-15T06:43:16.663Z,10.88
2023-04-15T06:45:44.266Z,13.27
2023-04-15T06:48:11.956Z,12.57
2023-04-15T06:50:39.341Z,12.25
2023-04-15T06:53:06.873Z,10.48
2023-04-15T06:55:34.614Z,10.57
2023-04-15T06:58:01.991Z,9.27
2023-04-15T07:00:29.353Z,11.15
2023-04-15T07:02:56.836Z,11.70
2023-04-15T07:05:25.556Z,9.98
2023-04-15T07:07:53.277Z,11.32
2023-04-15T07:10:20.689Z,11.07
2023-04-15T07:12:48.978Z,10.75
2023-04-15T07:15:16.680Z,17.27
2023-04-15T07:17:44.232Z,10.80
2023-04-15T07:20:11.772Z,11.88
2023-04-15T07:22:39.690Z,11.38
2023-04-15T07:25:07.737Z,11.18
2023-04-15T07:27:35.094Z,13.65
2023-04-15T07:30:02.594Z,11.32
2023-04-15T07:32:29.994Z,10.95
2023-04-15T07:34:57.875Z,9.60
2023-04-15T07:37:25.264Z,13.10
2023-04-15T07:39:53.211Z,9.13
2023-04-15T07:42:20.566Z,9.82
2023-04-15T07:44:47.964Z,8.43
2023-04-15T07:47:15.289Z,9.60
2023-04-15T07:49:43.698Z,8.45
2023-04-15T07:52:13.954Z,10.13
2023-04-15T07:54:41.294Z,9.38
2023-04-15T07:57:08.947Z,12.75
2023-04-15T07:59:36.685Z,9.00
2023-04-15T08:02:04.359Z,8.13
2023-04-15T08:04:32.704Z,24.42
2023-04-15T08:07:00.146Z,14.35
2023-04-15T08:09:27.514Z,11.32
2023-04-15T08:11:54.916Z,6.93
2023-04-15T08:14:22.421Z,8.60
2023-04-15T08:16:49.750Z,7.25
2023-04-15T08:19:20.806Z,7.40
2023-04-15T08:21:48.191Z,7.88
2023-04-15T08:24:15.836Z,8.93
2023-04-15T08:26:43.419Z,9.35
2023-04-15T08:29:10.864Z,10.00
2023-04-15T08:31:38.197Z,7.55
2023-04-15T08:34:05.687Z,7.13
2023-04-15T08:36:33.059Z,7.60
2023-04-15T08:39:02.253Z,6.80
2023-04-15T08:41:31.961Z,7.80
2023-04-15T08:44:02.332Z,7.32
2023-04-15T08:46:30.168Z,7.85
2023-04-15T08:48:58.059Z,7.13
2023-04-15T08:51:25.927Z,6.80
2023-04-15T08:53:53.366Z,7.82
2023-04-15T08:56:23.054Z,9.52
2023-04-15T08:58:51.513Z,6.70
2023-04-15T09:01:19.422Z,6.50
2023-04-15T09:03:48.475Z,5.68
2023-04-15T09:06:17.497Z,5.70
2023-04-15T09:08:45.140Z,6.40
2023-04-15T09:11:12.579Z,5.45
2023-04-15T09:13:40.200Z,5.45
2023-04-15T09:16:08.647Z,4.60
2023-04-15T09:18:37.110Z,5.10
2023-04-15T09:21:11.514Z,13.90
2023-04-15T09:23:40.018Z,6.87
2023-04-15T09:26:08.129Z,6.03
2023-04-15T09:28:41.981Z,6.68
2023-04-15T09:31:10.693Z,6.60
2023-04-15T09:33:54.871Z,6.25
2023-04-15T09:36:22.214Z,5.28
2023-04-15T09:38:55.726Z,4.90
2023-04-15T09:41:23.508Z,4.55
2023-04-15T09:43:50.867Z,4.68
2023-04-15T09:46:18.222Z,3.95
2023-04-15T09:48:45.792Z,4.57
2023-04-15T09:51:13.238Z,9.55
2023-04-15T09:53:40.553Z,5.88
2023-04-15T09:56:09.129Z,5.18
2023-04-15T09:58:38.889Z,5.55
2023-04-15T10:01:09.387Z,8.02
2023-04-15T10:03:37.876Z,5.80
2023-04-15T10:06:09.245Z,4.30
2023-04-15T10:08:36.571Z,5.68
2023-04-15T10:11:05.297Z,6.82
2023-04-15T10:13:35.200Z,5.20
2023-04-15T10:16:12.023Z,6.15
2023-04-15T10:18:41.930Z,5.95
2023-04-15T10:21:10.088Z,4.97
2023-04-15T10:23:37.613Z,6.22
2023-04-15T10:26:05.638Z,5.25
2023-04-15T10:28:33.103Z,4.10
2023-04-15T10:31:00.581Z,4.63
2023-04-15T10:33:28.101Z,5.28
2023-04-15T10:35:56.753Z,4.63
2023-04-15T10:38:40.281Z,5.30
2023-04-15T10:41:14.285Z,4.97
2023-04-15T10:43:46.776Z,5.68
2023-04-15T10:46:15.142Z,4.65
2023-04-15T10:48:48.496Z,4.20
2023-04-15T10:51:15.862Z,4.55
2023-04-15T10:53:43.849Z,4.38
2023-04-15T10:56:11.322Z,4.80
2023-04-15T10:58:45.636Z,8.00
2023-04-15T11:01:14.053Z,7.05
2023-04-15T11:03:43.735Z,9.93
2023-04-15T11:06:11.460Z,5.95
2023-04-15T11:08:59.476Z,5.30
2023-04-15T11:11:50.152Z,5.05
2023-04-15T11:14:17.596Z,5.38
2023-04-15T11:16:45.187Z,5.10
2023-04-15T11:19:12.634Z,6.00
2023-04-15T11:21:39.940Z,7.30
2023-04-15T11:24:07.485Z,7.10
2023-04-15T11:26:35.057Z,9.63
2023-04-15T11:29:02.733Z,8.40
2023-04-15T11:31:30.239Z,9.40
2023-04-15T11:33:59.561Z,9.40
2023-04-15T11:36:27.948Z,5.90
2023-04-15T11:38:55.714Z,5.68
2023-04-15T11:41:23.987Z,4.72
2023-04-15T11:43:51.926Z,6.32
2023-04-15T11:46:19.626Z,6.28
2023-04-15T11:48:47.550Z,8.32
2023-04-15T11:51:15.285Z,6.75
2023-04-15T11:53:44.010Z,6.15
2023-04-15T11:56:12.262Z,7.47
2023-04-15T11:58:39.822Z,9.10
2023-04-15T12:01:07.738Z,5.40
2023-04-15T12:03:39.509Z,6.53
2023-04-15T12:06:22.026Z,7.00
2023-04-15T12:08:49.338Z,7.90
2023-04-15T12:11:17.204Z,7.50
2023-04-15T12:13:45.345Z,8.73
2023-04-15T12:16:12.724Z,9.07
2023-04-15T12:18:40.123Z,8.38
2023-04-15T12:21:13.641Z,8.57
2023-04-15T12:23:49.303Z,8.90
2023-04-15T12:26:17.241Z,8.73
2023-04-15T12:28:44.713Z,11.30
2023-04-15T12:31:13.587Z,10.50
2023-04-15T12:33:41.052Z,8.88
2023-04-15T12:36:08.550Z,10.30
2023-04-15T12:38:36.129Z,9.18
2023-04-15T12:41:03.442Z,13.98
2023-04-15T12:43:30.726Z,9.52
2023-04-15T12:45:58.058Z,11.02
2023-04-15T12:48:25.620Z,11.93
2023-04-15T12:50:52.983Z,12.63
2023-04-15T12:53:21.603Z,14.63
2023-04-15T12:55:48.991Z,17.50
2023-04-15T12:58:16.311Z,13.52
2023-04-15T13:00:43.790Z,17.23
2023-04-15T13:03:11.301Z,16.52
2023-04-15T13:05:40.063Z,18.02
2023-04-15T13:08:07.762Z,20.00
2023-04-15T13:10:38.717Z,15.45
2023-04-15T13:13:06.871Z,16.88
2023-04-15T13:15:34.289Z,18.77
2023-04-15T13:18:01.982Z,19.77
2023-04-15T13:20:29.523Z,18.20
2023-04-15T13:22:56.979Z,19.33
2023-04-15T13:25:24.339Z,17.70
2023-04-15T13:27:51.665Z,21.33
2023-04-15T13:30:19.010Z,19.58
2023-04-15T13:32:47.608Z,21.67
2023-04-15T13:35:16.104Z,21.33
2023-04-15T13:37:43.448Z,19.80
2023-04-15T13:40:11.101Z,19.27
2023-04-15T13:42:38.469Z,20.05
2023-04-15T13:45:06.451Z,17.95
2023-04-15T13:47:33.864Z,19.83
2023-04-15T13:50:01.255Z,21.92
2023-04-15T13:52:28.618Z,18.67
2023-04-15T13:55:19.714Z,19.30
2023-04-15T13:57:43.216Z,18.50
2023-04-15T14:00:10.831Z,17.13
2023-04-15T14:02:38.314Z,18.27
2023-04-15T14:05:06.057Z,17.73
2023-04-15T14:07:33.408Z,18.05
2023-04-15T14:10:01.212Z,19.08
2023-04-15T14:12:28.554Z,23.95
2023-04-15T14:14:56.165Z,23.35
2023-04-15T14:17:23.558Z,14.50
2023-04-15T14:19:51.035Z,15.77
2023-04-15T14:22:19.142Z,15.85
2023-04-15T14:24:48.973Z,12.98
2023-04-15T14:27:16.946Z,16.48
2023-04-15T14:29:44.333Z,14.10
2023-04-15T14:32:12.773Z,15.82
2023-04-15T14:34:40.856Z,16.50
2023-04-15T14:37:08.243Z,12.45
2023-04-15T14:39:35.640Z,12.95
2023-04-15T14:42:03.006Z,12.10
2023-04-15T14:46:58.908Z,16.38
2023-04-15T14:49:26.347Z,16.65
2023-04-15T14:51:53.688Z,16.02
2023-04-15T14:54:22.349Z,17.77
2023-04-15T14:56:49.950Z,16.30
2023-04-15T14:59:17.318Z,22.58
2023-04-15T15:01:44.666Z,18.55
2023-04-15T15:04:12.444Z,22.63
2023-04-15T15:06:40.800Z,26.08
2023-04-15T15:09:08.309Z,23.02
2023-04-15T15:11:35.696Z,22.52
2023-04-15T15:14:03.121Z,27.25
2023-04-15T15:16:30.840Z,22.20
2023-04-15T15:18:58.294Z,23.40
2023-04-15T15:21:27.261Z,18.67
2023-04-15T15:23:54.904Z,19.55
2023-04-15T15:26:22.295Z,26.25
2023-04-15T15:28:50.986Z,24.45
2023-04-15T15:31:18.397Z,26.88
2023-04-15T15:33:45.954Z,25.98
2023-04-15T15:36:13.290Z,28.65
2023-04-15T15:38:42.056Z,27.50
2023-04-15T15:41:09.438Z,29.33
2023-04-15T15:43:37.148Z,27.38
2023-04-15T15:46:04.583Z,26.35
2023-04-15T15:48:31.941Z,35.28
2023-04-15T15:50:59.282Z,37.22
2023-04-15T15:53:26.654Z,31.92
2023-04-15T15:55:54.106Z,27.95
2023-04-15T15:58:21.555Z,28.00
2023-04-15T16:00:48.970Z,28.45
2023-04-15T16:03:16.823Z,23.38
2023-04-15T16:05:44.410Z,22.77
2023-04-15T16:08:12.168Z,25.70
2023-04-15T16:10:39.532Z,23.20
2023-04-15T16:13:06.857Z,22.17
2023-04-15T16:15:34.666Z,23.13
2023-04-15T16:18:02.150Z,21.25
2023-04-15T16:20:29.742Z,21.75
2023-04-15T16:22:57.507Z,25.23
2023-04-15T16:25:25.166Z,21.95
2023-04-15T16:28:02.962Z,21.55
2023-04-15T16:30:33.227Z,23.98
2023-04-15T16:33:00.636Z,20.02
2023-04-15T16:35:28.595Z,20.33
2023-04-15T16:37:56.006Z,27.17
2023-04-15T16:40:23.376Z,17.15
2023-04-15T16:42:50.877Z,17.75
2023-04-15T16:45:18.229Z,17.10
2023-04-15T16:47:45.647Z,16.58
2023-04-15T16:50:13.081Z,18.08
2023-04-15T16:52:40.450Z,14.25
2023-04-15T16:55:07.903Z,16.02
2023-04-15T16:58:00.415Z,14.98
2023-04-15T17:00:22.918Z,16.70
2023-04-15T17:02:50.572Z,18.05
2023-04-15T17:05:18.654Z,16.42
2023-04-15T17:07:46.023Z,14.90
2023-04-15T17:10:16.631Z,16.15
2023-04-15T17:12:43.969Z,17.67
2023-04-15T17:15:11.581Z,17.33
2023-04-15T17:17:39.041Z,13.68
2023-04-15T17:20:07.016Z,17.60
2023-04-15T17:22:34.470Z,15.13
2023-04-15T17:25:01.915Z,17.48
2023-04-15T17:27:30.188Z,15.05
2023-04-15T17:29:57.704Z,16.13
2023-04-15T17:32:31.832Z,16.30
2023-04-15T17:34:59.427Z,16.80
2023-04-15T17:37:27.047Z,15.07
2023-04-15T17:39:54.452Z,21.15
2023-04-15T17:42:22.828Z,16.30
2023-04-15T17:44:50.207Z,18.50
2023-04-15T17:47:17.521Z,17.45
2023-04-15T17:49:45.033Z,20.52
2023-04-15T17:52:12.383Z,19.65
2023-04-15T17:54:39.777Z,17.10
2023-04-15T17:57:07.172Z,15.63
2023-04-15T17:59:34.683Z,15.40
2023-04-15T18:02:02.148Z,17.85
2023-04-15T18:04:29.600Z,16.75
2023-04-15T18:06:56.936Z,15.85
2023-04-15T18:09:24.329Z,15.85
2023-04-15T18:11:51.663Z,16.13
2023-04-15T18:14:31.124Z,18.23
2023-04-15T18:17:01.555Z,17.67
2023-04-15T18:19:29.029Z,16.65
2023-04-15T18:21:56.325Z,22.25
2023-04-15T18:24:23.693Z,20.88
2023-04-15T18:26:51.019Z,19.77
2023-04-15T18:29:18.795Z,18.60
2023-04-15T18:31:46.328Z,20.23
2023-04-15T18:34:14.002Z,22.27
2023-04-15T18:36:41.364Z,22.58
2023-04-15T18:39:08.855Z,20.98
2023-04-15T18:41:36.258Z,19.17
2023-04-15T18:44:04.738Z,20.10
2023-04-15T18:46:32.125Z,20.17
2023-04-15T18:48:59.586Z,21.40
2023-04-15T18:51:27.618Z,20.05
2023-04-15T18:53:54.923Z,20.08
2023-04-15T18:56:22.377Z,18.50
2023-04-15T18:59:21.232Z,17.10
2023-04-15T19:01:37.294Z,17.23
2023-04-15T19:04:04.682Z,18.48
2023-04-15T19:06:32.241Z,21.33
2023-04-15T19:08:59.578Z,20.80
2023-04-15T19:11:26.955Z,20.83
2023-04-15T19:13:54.759Z,19.38
2023-04-15T19:16:22.114Z,19.67
2023-04-15T19:18:49.523Z,22.13
2023-04-15T19:21:16.831Z,18.00
2023-04-15T19:23:44.242Z,18.25
2023-04-15T19:26:12.461Z,19.45
2023-04-15T19:28:39.800Z,17.40
2023-04-15T19:31:07.570Z,17.92
2023-04-15T19:33:35.246Z,14.60
2023-04-15T19:36:04.398Z,16.73
2023-04-15T19:38:32.036Z,14.88
2023-04-15T19:40:59.825Z,14.32
2023-04-15T19:43:27.454Z,15.52
2023-04-15T19:45:55.079Z,14.40
2023-04-15T19:48:23.440Z,14.55
2023-04-15T19:50:51.216Z,15.10
2023-04-15T19:53:18.557Z,18.98
2023-04-15T19:55:47.196Z,14.98
2023-04-15T19:58:14.550Z,12.70
2023-04-15T20:00:41.971Z,17.05
2023-04-15T20:03:09.495Z,12.82
2023-04-15T20:05:37.009Z,13.73
2023-04-15T20:08:04.457Z,14.00
2023-04-15T20:10:32.197Z,16.55
2023-04-15T20:12:59.620Z,13.18
2023-04-15T20:15:27.466Z,14.35
2023-04-15T20:17:54.857Z,13.90
2023-04-15T20:20:23.320Z,11.70
2023-04-15T20:22:50.766Z,10.75
2023-04-15T20:25:18.172Z,11.45
2023-04-15T20:27:45.680Z,9.90
2023-04-15T20:30:13.028Z,15.43
2023-04-15T20:32:40.402Z,13.23
2023-04-15T20:35:07.967Z,15.27
2023-04-15T20:37:36.463Z,14.90
2023-04-15T20:40:03.927Z,16.10
2023-04-15T20:42:34.769Z,12.65
2023-04-15T20:45:02.549Z,14.48
2023-04-15T20:47:30.054Z,12.60
2023-04-15T20:49:57.607Z,13.73
2023-04-15T20:52:24.966Z,12.30
2023-04-15T20:54:52.301Z,16.83
2023-04-15T20:57:20.582Z,13.55
2023-04-15T20:59:47.973Z,11.63
2023-04-15T21:02:15.864Z,9.35
2023-04-15T21:04:43.296Z,8.90
2023-04-15T21:07:10.904Z,8.70
2023-04-15T21:09:41.526Z,8.15
2023-04-15T21:12:08.943Z,9.63
2023-04-15T21:14:37.183Z,10.50
2023-04-15T21:17:10.817Z,10.05
2023-04-15T21:19:38.769Z,11.80
2023-04-15T21:22:06.219Z,12.07
2023-04-15T21:24:33.581Z,10.30
2023-04-15T21:27:02.138Z,13.68
2023-04-15T21:29:29.517Z,13.73
2023-04-15T21:31:56.971Z,16.40
2023-04-15T21:34:24.366Z,15.65
2023-04-15T21:36:51.723Z,16.00
2023-04-15T21:39:19.083Z,13.82
2023-04-15T21:41:46.641Z,14.82
2023-04-15T21:44:14.990Z,16.73
2023-04-15T21:46:45.793Z,13.10
2023-04-15T21:49:13.466Z,16.05
2023-04-15T21:51:40.833Z,17.00
2023-04-15T21:54:08.275Z,16.40
2023-04-15T21:56:35.732Z,17.98
2023-04-15T21:59:03.085Z,17.83
2023-04-15T22:01:30.479Z,14.85
2023-04-15T22:03:58.133Z,17.02
2023-04-15T22:06:25.610Z,18.95
2023-04-15T22:09:09.705Z,17.17
2023-04-15T22:11:38.707Z,16.73
2023-04-15T22:14:06.158Z,17.15
2023-04-15T22:16:33.549Z,17.50
2023-04-15T22:19:02.834Z,17.90
2023-04-15T22:21:30.320Z,16.35
2023-04-15T22:24:38.638Z,16.25
2023-04-15T22:26:45.050Z,17.90
2023-04-15T22:29:12.406Z,18.80
2023-04-15T22:31:39.792Z,18.05
2023-04-15T22:34:07.372Z,16.58
2023-04-15T22:36:34.858Z,19.20
2023-04-15T22:39:02.248Z,18.23
2023-04-15T22:41:29.602Z,20.33
2023-04-15T22:43:56.905Z,23.80
2023-04-15T22:46:24.300Z,22.05
2023-04-15T22:48:51.691Z,23.23
2023-04-15T22:51:22.645Z,26.92
2023-04-15T22:53:50.554Z,24.52
2023-04-15T22:56:21.403Z,26.10
2023-04-15T22:58:48.864Z,30.55
2023-04-15T23:01:17.896Z,30.23
2023-04-15T23:03:57.095Z,29.70
2023-04-15T23:06:33.260Z,32.33
2023-04-15T23:09:00.763Z,32.40
2023-04-15T23:11:28.117Z,32.90
2023-04-15T23:13:55.619Z,34.08
2023-04-15T23:16:23.284Z,36.97
2023-04-15T23:18:50.666Z,31.83
2023-04-15T23:21:18.034Z,50.75
2023-04-15T23:23:45.540Z,37.08
2023-04-15T23:26:13.240Z,36.35
2023-04-15T23:28:40.781Z,32.63
2023-04-15T23:31:08.145Z,37.15
2023-04-15T23:33:35.686Z,36.25
2023-04-15T23:36:03.041Z,35.78
2023-04-15T23:38:30.368Z,35.50
2023-04-15T23:40:57.672Z,36.58
2023-04-15T23:43:24.996Z,37.17
2023-04-15T23:45:52.322Z,33.45
2023-04-15T23:48:19.664Z,34.40
2023-04-15T23:50:46.998Z,36.70
2023-04-15T23:53:14.286Z,34.22
2023-04-15T23:55:41.622Z,32.17
2023-04-15T23:58:08.951Z,30.17
